sensor_id;sensor_type;location;lat;lon;timestamp;pressure;altitude;pressure_sealevel;temperature;humidity
75013;BME280;63567;49.956;20.130;2022-12-07T00:01:20;96610.09;;;1.41;87.11
75013;BME280;63567;49.956;20.130;2022-12-07T00:03:46;96609.09;;;1.42;87.19
75013;BME280;63567;49.956;20.130;2022-12-07T00:06:14;96601.78;;;1.28;88.05
75013;BME280;63567;49.956;20.130;2022-12-07T00:08:39;96600.81;;;1.39;87.96
75013;BME280;63567;49.956;20.130;2022-12-07T00:11:07;96605.72;;;1.32;87.88
75013;BME280;63567;49.956;20.130;2022-12-07T00:13:34;96604.78;;;1.33;87.90
75013;BME280;63567;49.956;20.130;2022-12-07T00:16:01;96606.81;;;1.39;87.35
75013;BME280;63567;49.956;20.130;2022-12-07T00:18:26;96606.50;;;1.42;87.31
75013;BME280;63567;49.956;20.130;2022-12-07T00:20:52;96606.38;;;1.44;87.54
75013;BME280;63567;49.956;20.130;2022-12-07T00:23:17;96604.59;;;1.44;86.99
75013;BME280;63567;49.956;20.130;2022-12-07T00:25:42;96611.69;;;1.52;86.51
75013;BME280;63567;49.956;20.130;2022-12-07T00:28:07;96604.56;;;1.54;86.37
75013;BME280;63567;49.956;20.130;2022-12-07T00:30:34;96609.78;;;1.54;86.71
75013;BME280;63567;49.956;20.130;2022-12-07T00:32:59;96610.56;;;1.55;86.87
75013;BME280;63567;49.956;20.130;2022-12-07T00:35:25;96605.53;;;1.53;85.98
75013;BME280;63567;49.956;20.130;2022-12-07T00:37:50;96615.47;;;1.58;86.26
75013;BME280;63567;49.956;20.130;2022-12-07T00:40:15;96613.84;;;1.57;86.87
75013;BME280;63567;49.956;20.130;2022-12-07T00:42:40;96610.72;;;1.53;86.42
75013;BME280;63567;49.956;20.130;2022-12-07T00:45:06;96611.84;;;1.41;87.40
75013;BME280;63567;49.956;20.130;2022-12-07T00:47:32;96604.59;;;1.44;86.76
75013;BME280;63567;49.956;20.130;2022-12-07T00:49:57;96606.38;;;1.44;87.18
75013;BME280;63567;49.956;20.130;2022-12-07T00:52:22;96608.03;;;1.35;87.49
75013;BME280;63567;49.956;20.130;2022-12-07T00:54:48;96598.34;;;1.37;87.41
75013;BME280;63567;49.956;20.130;2022-12-07T00:57:13;96603.66;;;1.46;87.31
75013;BME280;63567;49.956;20.130;2022-12-07T00:59:38;96598.16;;;1.49;87.00
75013;BME280;63567;49.956;20.130;2022-12-07T01:02:03;96593.50;;;1.52;86.58
75013;BME280;63567;49.956;20.130;2022-12-07T01:04:29;96601.44;;;1.51;86.35
75013;BME280;63567;49.956;20.130;2022-12-07T01:06:54;96602.41;;;1.50;86.69
75013;BME280;63567;49.956;20.130;2022-12-07T01:09:20;96598.53;;;1.54;86.99
75013;BME280;63567;49.956;20.130;2022-12-07T01:11:45;96587.91;;;1.57;87.06
75013;BME280;63567;49.956;20.130;2022-12-07T01:14:10;96590.19;;;1.60;86.50
75013;BME280;63567;49.956;20.130;2022-12-07T01:16:35;96587.03;;;1.66;86.58
75013;BME280;63567;49.956;20.130;2022-12-07T01:19:01;96586.09;;;1.67;86.45
75013;BME280;63567;49.956;20.130;2022-12-07T01:21:31;96582.13;;;1.63;86.87
75013;BME280;63567;49.956;20.130;2022-12-07T01:24:01;96587.41;;;1.43;86.76
75013;BME280;63567;49.956;20.130;2022-12-07T01:26:27;96585.06;;;1.40;86.90
75013;BME280;63567;49.956;20.130;2022-12-07T01:28:52;96587.78;;;1.49;86.99
75013;BME280;63567;49.956;20.130;2022-12-07T01:31:21;96592.66;;;1.61;86.37
75013;BME280;63567;49.956;20.130;2022-12-07T01:33:49;96593.19;;;1.65;86.52
75013;BME280;63567;49.956;20.130;2022-12-07T01:36:24;96587.47;;;1.61;86.69
75013;BME280;63567;49.956;20.130;2022-12-07T01:38:53;96583.38;;;1.59;86.79
75013;BME280;63567;49.956;20.130;2022-12-07T01:41:21;96578.78;;;1.43;86.88
75013;BME280;63567;49.956;20.130;2022-12-07T01:44:10;96575.66;;;1.39;86.56
75013;BME280;63567;49.956;20.130;2022-12-07T01:46:36;96578.28;;;1.30;87.53
75013;BME280;63567;49.956;20.130;2022-12-07T01:49:04;96587.03;;;1.29;88.20
75013;BME280;63567;49.956;20.130;2022-12-07T01:51:31;96583.47;;;1.30;87.58
75013;BME280;63567;49.956;20.130;2022-12-07T01:53:56;96582.13;;;1.26;87.70
75013;BME280;63567;49.956;20.130;2022-12-07T01:56:24;96588.16;;;1.26;87.38
75013;BME280;63567;49.956;20.130;2022-12-07T01:58:51;96588.53;;;1.31;87.03
75013;BME280;63567;49.956;20.130;2022-12-07T02:01:17;96584.56;;;1.27;87.50
75013;BME280;63567;49.956;20.130;2022-12-07T02:03:44;96581.31;;;1.25;87.34
75013;BME280;63567;49.956;20.130;2022-12-07T02:06:12;96575.31;;;1.25;87.32
75013;BME280;63567;49.956;20.130;2022-12-07T02:08:39;96575.16;;;1.26;87.67
75013;BME280;63567;49.956;20.130;2022-12-07T02:11:06;96570.66;;;1.28;87.51
75013;BME280;63567;49.956;20.130;2022-12-07T02:13:35;96565.75;;;1.25;87.66
75013;BME280;63567;49.956;20.130;2022-12-07T02:18:48;96563.28;;;1.23;87.26
75013;BME280;63567;49.956;20.130;2022-12-07T02:26:24;96566.75;;;1.05;87.95
75013;BME280;63567;49.956;20.130;2022-12-07T02:29:08;96565.78;;;1.15;87.13
75013;BME280;63567;49.956;20.130;2022-12-07T02:31:36;96570.84;;;1.07;86.89
75013;BME280;63567;49.956;20.130;2022-12-07T02:36:48;96565.94;;;1.04;86.99
75013;BME280;63567;49.956;20.130;2022-12-07T02:39:20;96563.63;;;1.01;87.33
75013;BME280;63567;49.956;20.130;2022-12-07T02:41:51;96560.75;;;1.04;87.14
75013;BME280;63567;49.956;20.130;2022-12-07T02:44:20;96556.22;;;1.06;87.49
75013;BME280;63567;49.956;20.130;2022-12-07T02:47:01;96555.97;;;0.99;87.25
75013;BME280;63567;49.956;20.130;2022-12-07T02:49:28;96558.00;;;1.06;87.67
75013;BME280;63567;49.956;20.130;2022-12-07T02:51:54;96561.56;;;1.05;87.95
75013;BME280;63567;49.956;20.130;2022-12-07T02:54:20;96562.09;;;1.08;88.22
75013;BME280;63567;49.956;20.130;2022-12-07T02:56:48;96557.88;;;1.07;87.67
75013;BME280;63567;49.956;20.130;2022-12-07T02:59:45;96557.44;;;1.12;87.94
75013;BME280;63567;49.956;20.130;2022-12-07T03:05:12;96554.06;;;1.11;88.01
75013;BME280;63567;49.956;20.130;2022-12-07T03:08:07;96544.38;;;1.03;87.75
75013;BME280;63567;49.956;20.130;2022-12-07T03:10:56;96547.50;;;1.07;87.60
75013;BME280;63567;49.956;20.130;2022-12-07T03:16:15;96548.19;;;0.99;87.66
75013;BME280;63567;49.956;20.130;2022-12-07T03:18:49;96544.38;;;1.03;87.81
75013;BME280;63567;49.956;20.130;2022-12-07T03:21:19;96547.38;;;0.99;88.73
75013;BME280;63567;49.956;20.130;2022-12-07T03:23:51;96549.84;;;1.00;88.43
75013;BME280;63567;49.956;20.130;2022-12-07T03:26:18;96543.69;;;1.01;87.94
75013;BME280;63567;49.956;20.130;2022-12-07T03:28:50;96550.09;;;1.07;87.93
75013;BME280;63567;49.956;20.130;2022-12-07T03:31:26;96552.16;;;1.03;87.83
75013;BME280;63567;49.956;20.130;2022-12-07T03:36:30;96539.69;;;1.17;88.17
75013;BME280;63567;49.956;20.130;2022-12-07T03:39:22;96538.63;;;1.10;88.45
75013;BME280;63567;49.956;20.130;2022-12-07T03:41:49;96538.19;;;1.14;87.44
75013;BME280;63567;49.956;20.130;2022-12-07T03:44:15;96540.34;;;1.19;87.80
75013;BME280;63567;49.956;20.130;2022-12-07T03:47:01;96539.13;;;1.23;87.96
75013;BME280;63567;49.956;20.130;2022-12-07T03:49:31;96534.09;;;1.12;88.27
75013;BME280;63567;49.956;20.130;2022-12-07T03:52:12;96532.50;;;1.11;88.35
75013;BME280;63567;49.956;20.130;2022-12-07T03:57:22;96531.91;;;1.17;88.21
75013;BME280;63567;49.956;20.130;2022-12-07T03:59:49;96529.72;;;1.12;87.97
75013;BME280;63567;49.956;20.130;2022-12-07T04:02:16;96526.72;;;1.17;88.05
75013;BME280;63567;49.956;20.130;2022-12-07T04:04:42;96530.66;;;1.21;88.36
75013;BME280;63567;49.956;20.130;2022-12-07T04:07:08;96529.56;;;1.23;88.64
75013;BME280;63567;49.956;20.130;2022-12-07T04:09:33;96524.22;;;1.25;88.18
75013;BME280;63567;49.956;20.130;2022-12-07T04:11:59;96533.25;;;1.21;88.62
75013;BME280;63567;49.956;20.130;2022-12-07T04:14:24;96534.47;;;1.27;87.71
75013;BME280;63567;49.956;20.130;2022-12-07T04:16:55;96536.53;;;1.23;88.35
75013;BME280;63567;49.956;20.130;2022-12-07T04:19:24;96536.78;;;1.30;87.94
75013;BME280;63567;49.956;20.130;2022-12-07T04:21:50;96531.59;;;1.30;87.96
75013;BME280;63567;49.956;20.130;2022-12-07T04:24:15;96525.88;;;1.26;87.92
75013;BME280;63567;49.956;20.130;2022-12-07T04:26:41;96526.56;;;1.28;88.10
75013;BME280;63567;49.956;20.130;2022-12-07T04:29:07;96526.41;;;1.30;88.33
75013;BME280;63567;49.956;20.130;2022-12-07T04:31:33;96523.13;;;1.28;88.75
75013;BME280;63567;49.956;20.130;2022-12-07T04:33:58;96520.94;;;1.33;88.49
75013;BME280;63567;49.956;20.130;2022-12-07T04:36:24;96522.13;;;1.38;88.44
75013;BME280;63567;49.956;20.130;2022-12-07T04:38:49;96517.66;;;1.31;88.08
75013;BME280;63567;49.956;20.130;2022-12-07T04:41:14;96520.09;;;1.32;87.71
75013;BME280;63567;49.956;20.130;2022-12-07T04:43:39;96520.09;;;1.32;88.73
75013;BME280;63567;49.956;20.130;2022-12-07T04:46:05;96518.19;;;1.34;88.30
75013;BME280;63567;49.956;20.130;2022-12-07T04:48:30;96519.53;;;1.38;87.76
75013;BME280;63567;49.956;20.130;2022-12-07T04:50:55;96515.75;;;1.33;88.33
75013;BME280;63567;49.956;20.130;2022-12-07T04:53:21;96517.66;;;1.31;88.48
75013;BME280;63567;49.956;20.130;2022-12-07T04:55:46;96513.16;;;1.33;88.18
75013;BME280;63567;49.956;20.130;2022-12-07T04:58:12;96516.00;;;1.30;87.75
75013;BME280;63567;49.956;20.130;2022-12-07T05:00:38;96519.28;;;1.32;88.11
75013;BME280;63567;49.956;20.130;2022-12-07T05:03:04;96511.94;;;1.27;88.21
75013;BME280;63567;49.956;20.130;2022-12-07T05:05:29;96509.63;;;1.24;88.36
75013;BME280;63567;49.956;20.130;2022-12-07T05:07:54;96507.28;;;1.31;87.47
75013;BME280;63567;49.956;20.130;2022-12-07T05:10:20;96516.00;;;1.39;88.13
75013;BME280;63567;49.956;20.130;2022-12-07T05:12:45;96508.63;;;1.35;87.95
75013;BME280;63567;49.956;20.130;2022-12-07T05:15:11;96512.59;;;1.29;88.12
75013;BME280;63567;49.956;20.130;2022-12-07T05:17:37;96497.47;;;1.25;88.30
75013;BME280;63567;49.956;20.130;2022-12-07T05:20:02;96501.41;;;1.29;87.94
75013;BME280;63567;49.956;20.130;2022-12-07T05:22:28;96501.19;;;1.22;88.88
75013;BME280;63567;49.956;20.130;2022-12-07T05:24:56;96497.47;;;1.25;88.80
75013;BME280;63567;49.956;20.130;2022-12-07T05:27:22;96504.69;;;1.31;88.59
75013;BME280;63567;49.956;20.130;2022-12-07T05:29:49;96496.81;;;1.22;88.40
75013;BME280;63567;49.956;20.130;2022-12-07T05:32:15;96510.56;;;1.33;88.31
75013;BME280;63567;49.956;20.130;2022-12-07T05:34:40;96510.31;;;1.26;88.21
75013;BME280;63567;49.956;20.130;2022-12-07T05:37:06;96511.06;;;1.36;87.95
75013;BME280;63567;49.956;20.130;2022-12-07T05:39:31;96505.06;;;1.36;88.25
75013;BME280;63567;49.956;20.130;2022-12-07T05:41:56;96519.09;;;1.43;87.91
75013;BME280;63567;49.956;20.130;2022-12-07T05:44:37;96508.78;;;1.33;88.55
75013;BME280;63567;49.956;20.130;2022-12-07T05:47:03;96507.03;;;1.24;87.96
75013;BME280;63567;49.956;20.130;2022-12-07T05:49:29;96518.00;;;1.18;88.11
75013;BME280;63567;49.956;20.130;2022-12-07T05:51:54;96510.75;;;1.21;88.62
75013;BME280;63567;49.956;20.130;2022-12-07T05:54:19;96516.34;;;1.17;88.53
75013;BME280;63567;49.956;20.130;2022-12-07T05:56:45;96517.00;;;1.19;87.79
75013;BME280;63567;49.956;20.130;2022-12-07T05:59:10;96509.41;;;1.17;87.79
75013;BME280;63567;49.956;20.130;2022-12-07T06:01:49;96514.34;;;1.11;88.70
75013;BME280;63567;49.956;20.130;2022-12-07T06:04:14;96516.53;;;1.06;88.97
75013;BME280;63567;49.956;20.130;2022-12-07T06:06:40;96511.34;;;1.06;89.04
75013;BME280;63567;49.956;20.130;2022-12-07T06:09:06;96513.50;;;1.10;88.05
75013;BME280;63567;49.956;20.130;2022-12-07T06:11:31;96515.72;;;1.05;88.18
75013;BME280;63567;49.956;20.130;2022-12-07T06:14:15;96510.91;;;1.10;89.00
75013;BME280;63567;49.956;20.130;2022-12-07T06:16:40;96520.16;;;1.13;89.08
75013;BME280;63567;49.956;20.130;2022-12-07T06:19:06;96523.44;;;1.15;88.48
75013;BME280;63567;49.956;20.130;2022-12-07T06:21:31;96519.91;;;1.16;88.95
75013;BME280;63567;49.956;20.130;2022-12-07T06:23:57;96523.84;;;1.20;88.48
75013;BME280;63567;49.956;20.130;2022-12-07T06:26:22;96522.06;;;1.20;88.37
75013;BME280;63567;49.956;20.130;2022-12-07T06:28:47;96524.66;;;1.20;88.63
75013;BME280;63567;49.956;20.130;2022-12-07T06:31:13;96528.28;;;1.37;88.04
75013;BME280;63567;49.956;20.130;2022-12-07T06:33:38;96529.41;;;1.35;87.95
75013;BME280;63567;49.956;20.130;2022-12-07T06:36:03;96544.34;;;1.51;88.28
75013;BME280;63567;49.956;20.130;2022-12-07T06:38:29;96538.84;;;1.54;88.12
75013;BME280;63567;49.956;20.130;2022-12-07T06:40:54;96540.75;;;1.52;87.60
75013;BME280;63567;49.956;20.130;2022-12-07T06:43:19;96535.63;;;1.42;88.39
75013;BME280;63567;49.956;20.130;2022-12-07T06:45:45;96536.75;;;1.39;88.21
75013;BME280;63567;49.956;20.130;2022-12-07T06:48:10;96543.84;;;1.37;88.01
75013;BME280;63567;49.956;20.130;2022-12-07T06:50:35;96542.63;;;1.41;87.18
75013;BME280;63567;49.956;20.130;2022-12-07T06:53:00;96549.56;;;1.41;87.51
75013;BME280;63567;49.956;20.130;2022-12-07T06:55:26;96551.31;;;1.50;86.92
75013;BME280;63567;49.956;20.130;2022-12-07T06:57:51;96553.38;;;1.47;87.23
75013;BME280;63567;49.956;20.130;2022-12-07T07:00:17;96551.00;;;1.53;86.48
75013;BME280;63567;49.956;20.130;2022-12-07T07:02:42;96557.44;;;1.49;87.09
75013;BME280;63567;49.956;20.130;2022-12-07T07:05:07;96559.22;;;1.49;86.86
75013;BME280;63567;49.956;20.130;2022-12-07T07:07:33;96552.38;;;1.20;87.43
75013;BME280;63567;49.956;20.130;2022-12-07T07:09:58;96554.25;;;1.28;86.89
75013;BME280;63567;49.956;20.130;2022-12-07T07:12:23;96555.22;;;1.27;86.99
75013;BME280;63567;49.956;20.130;2022-12-07T07:14:48;96554.94;;;1.30;86.36
75013;BME280;63567;49.956;20.130;2022-12-07T07:17:14;96563.44;;;1.22;86.70
75013;BME280;63567;49.956;20.130;2022-12-07T07:19:39;96560.84;;;1.12;87.09
75013;BME280;63567;49.956;20.130;2022-12-07T07:22:04;96564.25;;;1.13;87.60
75013;BME280;63567;49.956;20.130;2022-12-07T07:24:30;96567.16;;;1.10;86.64
75013;BME280;63567;49.956;20.130;2022-12-07T07:26:55;96555.25;;;1.17;87.00
75013;BME280;63567;49.956;20.130;2022-12-07T07:29:20;96557.75;;;1.09;86.96
75013;BME280;63567;49.956;20.130;2022-12-07T07:31:45;96557.31;;;1.13;87.10
75013;BME280;63567;49.956;20.130;2022-12-07T07:34:11;96555.41;;;1.15;87.13
75013;BME280;63567;49.956;20.130;2022-12-07T07:36:36;96557.56;;;1.20;86.89
75013;BME280;63567;49.956;20.130;2022-12-07T07:39:02;96561.03;;;1.11;87.01
75013;BME280;63567;49.956;20.130;2022-12-07T07:41:27;96559.91;;;1.13;87.21
75013;BME280;63567;49.956;20.130;2022-12-07T07:43:53;96554.72;;;1.13;87.11
75013;BME280;63567;49.956;20.130;2022-12-07T07:46:18;96557.44;;;1.21;86.90
75013;BME280;63567;49.956;20.130;2022-12-07T07:48:43;96553.19;;;1.20;87.17
75013;BME280;63567;49.956;20.130;2022-12-07T07:51:09;96559.53;;;0.98;87.65
75013;BME280;63567;49.956;20.130;2022-12-07T07:53:34;96552.56;;;0.99;87.94
75013;BME280;63567;49.956;20.130;2022-12-07T07:55:59;96556.22;;;1.06;87.76
75013;BME280;63567;49.956;20.130;2022-12-07T07:58:24;96555.88;;;0.91;87.39
75013;BME280;63567;49.956;20.130;2022-12-07T08:00:50;96571.84;;;0.87;87.73
75013;BME280;63567;49.956;20.130;2022-12-07T08:03:16;96557.63;;;0.91;88.05
75013;BME280;63567;49.956;20.130;2022-12-07T08:05:42;96562.25;;;0.97;87.84
75013;BME280;63567;49.956;20.130;2022-12-07T08:08:07;96559.72;;;0.87;88.57
75013;BME280;63567;49.956;20.130;2022-12-07T08:10:32;96566.38;;;0.90;88.62
75013;BME280;63567;49.956;20.130;2022-12-07T08:12:59;96568.97;;;0.90;88.18
75013;BME280;63567;49.956;20.130;2022-12-07T08:15:43;96568.97;;;0.80;89.46
75013;BME280;63567;49.956;20.130;2022-12-07T08:18:08;96567.75;;;0.84;88.57
75013;BME280;63567;49.956;20.130;2022-12-07T08:20:36;96569.25;;;0.87;88.40
75013;BME280;63567;49.956;20.130;2022-12-07T08:23:01;96571.28;;;0.93;89.03
75013;BME280;63567;49.956;20.130;2022-12-07T08:25:27;96571.69;;;0.98;88.80
75013;BME280;63567;49.956;20.130;2022-12-07T08:27:53;96582.47;;;1.03;88.93
75013;BME280;63567;49.956;20.130;2022-12-07T08:30:19;96578.38;;;1.00;88.72
75013;BME280;63567;49.956;20.130;2022-12-07T08:32:45;96579.91;;;0.93;88.65
75013;BME280;63567;49.956;20.130;2022-12-07T08:35:11;96584.91;;;0.95;88.39
75013;BME280;63567;49.956;20.130;2022-12-07T08:37:36;96591.59;;;1.07;87.93
75013;BME280;63567;49.956;20.130;2022-12-07T08:40:03;96589.56;;;1.11;87.73
75013;BME280;63567;49.956;20.130;2022-12-07T08:42:29;96590.88;;;1.15;88.51
75013;BME280;63567;49.956;20.130;2022-12-07T08:45:04;96587.78;;;1.11;87.43
75013;BME280;63567;49.956;20.130;2022-12-07T08:47:29;96589.00;;;1.07;87.75
75013;BME280;63567;49.956;20.130;2022-12-07T08:49:55;96590.38;;;1.01;87.58
75013;BME280;63567;49.956;20.130;2022-12-07T08:52:20;96588.44;;;1.13;87.48
75013;BME280;63567;49.956;20.130;2022-12-07T08:54:46;96592.16;;;1.11;87.67
75013;BME280;63567;49.956;20.130;2022-12-07T08:57:11;96590.63;;;1.18;87.06
75013;BME280;63567;49.956;20.130;2022-12-07T08:59:37;96597.44;;;1.19;88.00
75013;BME280;63567;49.956;20.130;2022-12-07T09:02:04;96596.59;;;1.28;87.70
75013;BME280;63567;49.956;20.130;2022-12-07T09:04:30;96593.88;;;1.20;88.16
75013;BME280;63567;49.956;20.130;2022-12-07T09:06:55;96603.72;;;1.26;87.50
75013;BME280;63567;49.956;20.130;2022-12-07T09:09:21;96600.13;;;1.27;87.44
75013;BME280;63567;49.956;20.130;2022-12-07T09:11:46;96600.44;;;1.24;87.32
75013;BME280;63567;49.956;20.130;2022-12-07T09:14:12;96600.69;;;1.21;88.06
75013;BME280;63567;49.956;20.130;2022-12-07T09:16:38;96596.44;;;1.30;87.74
75013;BME280;63567;49.956;20.130;2022-12-07T09:19:03;96598.47;;;1.36;87.69
75013;BME280;63567;49.956;20.130;2022-12-07T09:21:29;96596.53;;;1.48;87.49
75013;BME280;63567;49.956;20.130;2022-12-07T09:23:54;96602.78;;;1.55;86.94
75013;BME280;63567;49.956;20.130;2022-12-07T09:26:20;96591.06;;;1.51;86.85
75013;BME280;63567;49.956;20.130;2022-12-07T09:28:45;96589.91;;;1.63;86.61
75013;BME280;63567;49.956;20.130;2022-12-07T09:31:10;96589.19;;;1.71;86.24
75013;BME280;63567;49.956;20.130;2022-12-07T09:33:35;96594.72;;;1.85;85.59
75013;BME280;63567;49.956;20.130;2022-12-07T09:36:01;96589.75;;;1.92;86.10
75013;BME280;63567;49.956;20.130;2022-12-07T09:38:27;96583.22;;;1.88;85.30
75013;BME280;63567;49.956;20.130;2022-12-07T09:40:54;96588.31;;;1.80;86.29
75013;BME280;63567;49.956;20.130;2022-12-07T09:43:22;96582.19;;;1.81;85.79
75013;BME280;63567;49.956;20.130;2022-12-07T09:45:51;96575.28;;;1.90;85.36
75013;BME280;63567;49.956;20.130;2022-12-07T09:48:21;96574.94;;;1.84;85.61
75013;BME280;63567;49.956;20.130;2022-12-07T09:50:47;96583.03;;;1.99;85.71
75013;BME280;63567;49.956;20.130;2022-12-07T09:53:24;96574.06;;;2.12;85.68
75013;BME280;63567;49.956;20.130;2022-12-07T09:55:50;96576.63;;;2.21;84.31
75013;BME280;63567;49.956;20.130;2022-12-07T09:58:24;96585.59;;;2.27;84.63
75013;BME280;63567;49.956;20.130;2022-12-07T10:01:09;96581.28;;;2.18;84.00
75013;BME280;63567;49.956;20.130;2022-12-07T10:03:37;96584.38;;;2.03;84.94
75013;BME280;63567;49.956;20.130;2022-12-07T10:06:04;96580.38;;;2.09;84.61
75013;BME280;63567;49.956;20.130;2022-12-07T10:08:31;96579.41;;;2.10;84.91
75013;BME280;63567;49.956;20.130;2022-12-07T10:10:57;96580.75;;;2.14;83.94
75013;BME280;63567;49.956;20.130;2022-12-07T10:13:37;96574.00;;;2.21;83.92
75013;BME280;63567;49.956;20.130;2022-12-07T10:16:04;96577.88;;;2.17;83.90
75013;BME280;63567;49.956;20.130;2022-12-07T10:18:33;96582.31;;;2.07;84.44
75013;BME280;63567;49.956;20.130;2022-12-07T10:21:19;96573.25;;;1.93;84.12
75013;BME280;63567;49.956;20.130;2022-12-07T10:24:08;96574.53;;;1.79;84.97
75013;BME280;63567;49.956;20.130;2022-12-07T10:26:52;96577.53;;;1.84;85.25
75013;BME280;63567;49.956;20.130;2022-12-07T10:29:22;96575.06;;;1.83;84.94
75013;BME280;63567;49.956;20.130;2022-12-07T10:31:56;96573.09;;;1.67;85.50
75013;BME280;63567;49.956;20.130;2022-12-07T10:34:26;96568.31;;;1.62;86.01
75013;BME280;63567;49.956;20.130;2022-12-07T10:36:53;96563.44;;;1.59;85.98
75013;BME280;63567;49.956;20.130;2022-12-07T10:39:23;96565.69;;;1.72;86.34
75013;BME280;63567;49.956;20.130;2022-12-07T10:42:09;96556.78;;;1.75;86.21
75013;BME280;63567;49.956;20.130;2022-12-07T10:44:36;96557.91;;;1.72;86.15
75013;BME280;63567;49.956;20.130;2022-12-07T10:47:21;96557.31;;;1.78;86.30
75013;BME280;63567;49.956;20.130;2022-12-07T10:53:04;96555.47;;;1.89;85.33
75013;BME280;63567;49.956;20.130;2022-12-07T10:55:52;96549.38;;;1.80;85.99
75013;BME280;63567;49.956;20.130;2022-12-07T10:58:39;96546.25;;;1.76;86.49
75013;BME280;63567;49.956;20.130;2022-12-07T11:09:35;96531.91;;;2.18;84.79
75013;BME280;63567;49.956;20.130;2022-12-07T11:14:54;96532.44;;;2.21;84.24
75013;BME280;63567;49.956;20.130;2022-12-07T11:17:32;96536.13;;;2.19;83.92
75013;BME280;63567;49.956;20.130;2022-12-07T11:20:21;96531.47;;;2.22;84.39
75013;BME280;63567;49.956;20.130;2022-12-07T11:23:04;96533.47;;;2.29;83.96
75013;BME280;63567;49.956;20.130;2022-12-07T11:28:59;96527.03;;;2.15;84.34
75013;BME280;63567;49.956;20.130;2022-12-07T11:33:51;96535.84;;;2.22;84.29
75013;BME280;63567;49.956;20.130;2022-12-07T11:36:38;96533.34;;;2.30;83.78
75013;BME280;63567;49.956;20.130;2022-12-07T11:41:45;96525.31;;;2.23;84.06
75013;BME280;63567;49.956;20.130;2022-12-07T11:44:26;96530.06;;;2.28;84.51
75013;BME280;63567;49.956;20.130;2022-12-07T11:47:02;96522.19;;;2.20;84.38
75013;BME280;63567;49.956;20.130;2022-12-07T11:49:41;96521.50;;;2.36;84.47
75013;BME280;63567;49.956;20.130;2022-12-07T11:52:16;96517.66;;;2.40;84.13
75013;BME280;63567;49.956;20.130;2022-12-07T11:54:43;96523.44;;;2.52;84.03
75013;BME280;63567;49.956;20.130;2022-12-07T11:57:20;96520.06;;;2.59;83.50
75013;BME280;63567;49.956;20.130;2022-12-07T11:59:52;96511.69;;;2.65;83.18
75013;BME280;63567;49.956;20.130;2022-12-07T12:02:31;96518.88;;;2.72;82.32
75013;BME280;63567;49.956;20.130;2022-12-07T12:05:17;96512.22;;;2.77;82.54
75013;BME280;63567;49.956;20.130;2022-12-07T12:07:44;96526.97;;;2.68;82.38
75013;BME280;63567;49.956;20.130;2022-12-07T12:10:48;96518.88;;;2.72;82.43
75013;BME280;63567;49.956;20.130;2022-12-07T12:13:25;96511.41;;;2.77;82.41
75013;BME280;63567;49.956;20.130;2022-12-07T12:16:16;96504.34;;;2.87;82.32
75013;BME280;63567;49.956;20.130;2022-12-07T12:21:16;96506.28;;;2.85;81.76
75013;BME280;63567;49.956;20.130;2022-12-07T12:23:46;96506.16;;;2.95;82.02
75013;BME280;63567;49.956;20.130;2022-12-07T12:26:33;96506.28;;;3.11;81.70
75013;BME280;63567;49.956;20.130;2022-12-07T12:29:02;96497.59;;;3.02;81.57
75013;BME280;63567;49.956;20.130;2022-12-07T12:31:33;96497.66;;;3.11;81.62
75013;BME280;63567;49.956;20.130;2022-12-07T12:34:03;96500.28;;;3.19;81.75
75013;BME280;63567;49.956;20.130;2022-12-07T12:39:16;96491.19;;;3.23;81.55
75013;BME280;63567;49.956;20.130;2022-12-07T12:46:54;96495.63;;;2.96;82.25
75013;BME280;63567;49.956;20.130;2022-12-07T12:51:50;96497.66;;;2.84;81.38
75013;BME280;63567;49.956;20.130;2022-12-07T12:54:30;96489.34;;;2.81;81.03
75013;BME280;63567;49.956;20.130;2022-12-07T12:57:14;96486.88;;;2.79;80.79
75013;BME280;63567;49.956;20.130;2022-12-07T13:02:35;96485.69;;;2.65;80.04
75013;BME280;63567;49.956;20.130;2022-12-07T13:15:51;96489.06;;;2.40;77.31
75013;BME280;63567;49.956;20.130;2022-12-07T13:20:59;96501.75;;;2.25;77.50
75013;BME280;63567;49.956;20.130;2022-12-07T13:28:47;96492.78;;;2.19;77.15
75013;BME280;63567;49.956;20.130;2022-12-07T13:31:23;96491.38;;;2.25;76.83
75013;BME280;63567;49.956;20.130;2022-12-07T13:33:52;96488.41;;;2.20;77.89
75013;BME280;63567;49.956;20.130;2022-12-07T13:36:23;96498.13;;;2.18;78.87
75013;BME280;63567;49.956;20.130;2022-12-07T13:38:52;96495.53;;;2.18;79.74
75013;BME280;63567;49.956;20.130;2022-12-07T13:41:19;96496.88;;;2.22;79.37
75013;BME280;63567;49.956;20.130;2022-12-07T13:49:23;96490.66;;;2.15;78.70
75013;BME280;63567;49.956;20.130;2022-12-07T13:51:50;96493.38;;;2.13;78.78
75013;BME280;63567;49.956;20.130;2022-12-07T13:54:16;96493.88;;;2.17;79.11
75013;BME280;63567;49.956;20.130;2022-12-07T13:56:41;96494.19;;;2.14;78.97
75013;BME280;63567;49.956;20.130;2022-12-07T13:59:22;96497.78;;;2.13;78.11
75013;BME280;63567;49.956;20.130;2022-12-07T14:01:49;96508.66;;;2.16;78.33
75013;BME280;63567;49.956;20.130;2022-12-07T14:06:56;96505.75;;;2.01;77.64
75013;BME280;63567;49.956;20.130;2022-12-07T14:09:26;96495.59;;;1.90;77.21
75013;BME280;63567;49.956;20.130;2022-12-07T14:11:53;96515.69;;;1.88;77.27
75013;BME280;63567;49.956;20.130;2022-12-07T14:14:30;96512.97;;;1.90;77.07
75013;BME280;63567;49.956;20.130;2022-12-07T14:16:59;96513.41;;;1.85;77.16
75013;BME280;63567;49.956;20.130;2022-12-07T14:22:07;96516.28;;;1.82;77.58
75013;BME280;63567;49.956;20.130;2022-12-07T14:24:42;96516.34;;;1.72;77.34
75013;BME280;63567;49.956;20.130;2022-12-07T14:27:17;96515.53;;;1.72;77.48
75013;BME280;63567;49.956;20.130;2022-12-07T14:29:43;96516.00;;;1.67;77.48
75013;BME280;63567;49.956;20.130;2022-12-07T14:32:24;96519.84;;;1.63;77.32
75013;BME280;63567;49.956;20.130;2022-12-07T14:35:30;96517.84;;;1.47;77.45
75013;BME280;63567;49.956;20.130;2022-12-07T14:37:49;96517.34;;;1.43;77.80
75013;BME280;63567;49.956;20.130;2022-12-07T14:40:20;96528.28;;;1.37;77.23